createdAt,value
2018-11-26T00:00:50.105Z,41.03
2018-11-26T00:03:18.351Z,30.83
2018-11-26T00:05:46.633Z,29.50
2018-11-26T00:08:14.849Z,50.07
2018-11-26T00:11:21.890Z,44.57
2018-11-26T00:13:50.134Z,35.57
2018-11-26T00:16:18.410Z,33.33
2018-11-26T00:18:46.705Z,31.70
2018-11-26T00:21:14.891Z,43.57
2018-11-26T00:23:43.107Z,34.53
2018-11-26T00:26:11.386Z,38.40
2018-11-26T00:28:39.610Z,34.10
2018-11-26T00:31:07.894Z,48.63
2018-11-26T00:33:36.106Z,35.13
2018-11-26T00:36:04.318Z,37.67
2018-11-26T00:38:32.592Z,38.53
2018-11-26T00:41:00.848Z,41.10
2018-11-26T00:43:29.225Z,35.40
2018-11-26T00:45:57.475Z,43.00
2018-11-26T00:48:25.755Z,44.33
2018-11-26T00:50:53.971Z,42.17
2018-11-26T00:53:22.226Z,41.30
2018-11-26T00:55:50.568Z,46.30
2018-11-26T00:58:18.832Z,45.30
2018-11-26T01:00:47.062Z,44.03
2018-11-26T01:03:15.330Z,57.63
2018-11-26T01:05:43.615Z,47.27
2018-11-26T01:08:11.883Z,49.53
2018-11-26T01:10:40.149Z,61.70
2018-11-26T01:13:08.605Z,46.73
2018-11-26T01:15:36.837Z,57.07
2018-11-26T01:18:05.738Z,44.17
2018-11-26T01:20:34.005Z,48.37
2018-11-26T01:23:02.255Z,37.97
2018-11-26T01:25:30.505Z,56.60
2018-11-26T01:27:58.770Z,42.60
2018-11-26T01:30:27.015Z,48.63
2018-11-26T01:32:55.291Z,57.83
2018-11-26T01:35:23.551Z,43.27
2018-11-26T01:37:51.783Z,36.80
2018-11-26T01:40:21.363Z,45.00
2018-11-26T01:42:49.892Z,37.90
2018-11-26T01:45:18.148Z,41.57
2018-11-26T01:47:46.392Z,40.30
2018-11-26T01:50:14.667Z,39.37
2018-11-26T01:52:42.912Z,43.73
2018-11-26T01:55:11.428Z,56.30
2018-11-26T01:57:39.697Z,39.97
2018-11-26T02:00:27.506Z,46.63
2018-11-26T02:02:55.781Z,43.67
2018-11-26T02:05:24.159Z,55.50
2018-11-26T02:07:52.405Z,49.60
2018-11-26T02:10:21.027Z,45.00
2018-11-26T02:12:49.296Z,41.27
2018-11-26T02:15:37.439Z,44.50
2018-11-26T02:18:05.818Z,55.33
2018-11-26T02:20:34.157Z,43.87
2018-11-26T02:23:02.383Z,50.17
2018-11-26T02:25:30.644Z,45.37
2018-11-26T02:27:58.858Z,41.47
2018-11-26T02:30:27.131Z,38.97
2018-11-26T02:32:55.398Z,47.70
2018-11-26T02:35:23.683Z,45.27
2018-11-26T02:37:52.808Z,52.60
2018-11-26T02:40:40.476Z,45.80
2018-11-26T02:43:08.720Z,45.67
2018-11-26T02:45:36.969Z,38.40
2018-11-26T02:48:05.630Z,42.37
2018-11-26T02:50:33.900Z,37.97
2018-11-26T02:53:02.185Z,38.07
2018-11-26T02:55:49.833Z,36.13
2018-11-26T02:58:18.084Z,40.30
2018-11-26T03:00:47.073Z,38.13
2018-11-26T03:03:16.069Z,43.10
2018-11-26T03:05:44.376Z,43.67
2018-11-26T03:08:12.627Z,41.27
2018-11-26T03:10:40.892Z,52.70
2018-11-26T03:13:09.113Z,45.43
2018-11-26T03:15:37.441Z,40.67
2018-11-26T03:18:05.660Z,47.90
2018-11-26T03:20:33.909Z,46.90
2018-11-26T03:23:02.176Z,40.20
2018-11-26T03:25:30.420Z,41.60
2018-11-26T03:27:58.662Z,44.70
2018-11-26T03:30:26.938Z,52.03
2018-11-26T03:32:55.168Z,38.73
2018-11-26T03:35:23.388Z,38.73
2018-11-26T03:37:51.673Z,40.87
2018-11-26T03:40:19.921Z,39.97
2018-11-26T03:42:48.172Z,38.60
2018-11-26T03:45:19.517Z,43.30
2018-11-26T03:47:47.704Z,44.43
2018-11-26T03:50:15.933Z,34.40
2018-11-26T03:52:44.739Z,35.80
2018-11-26T03:55:13.469Z,40.53
2018-11-26T03:57:41.780Z,40.23
2018-11-26T04:00:14.427Z,42.50
2018-11-26T04:02:42.700Z,45.70
2018-11-26T04:05:11.386Z,38.07
2018-11-26T04:07:39.695Z,26.30
2018-11-26T04:10:11.932Z,48.03
2018-11-26T04:12:40.214Z,36.23
2018-11-26T04:15:10.225Z,31.17
2018-11-26T04:17:38.503Z,41.50
2018-11-26T04:20:07.719Z,36.97
2018-11-26T04:22:35.974Z,37.80
2018-11-26T04:25:04.466Z,42.80
2018-11-26T04:27:32.739Z,35.53
2018-11-26T04:30:01.019Z,38.80
2018-11-26T04:32:29.293Z,37.33
2018-11-26T04:34:57.528Z,42.03
2018-11-26T04:37:25.799Z,35.97
2018-11-26T04:39:54.036Z,33.17
2018-11-26T04:42:22.269Z,36.97
2018-11-26T04:44:50.513Z,42.27
2018-11-26T04:47:18.790Z,37.43
2018-11-26T04:49:47.023Z,39.37
2018-11-26T04:52:15.275Z,39.70
2018-11-26T04:54:51.076Z,37.93
2018-11-26T04:57:19.305Z,37.77
2018-11-26T04:59:47.550Z,35.07
2018-11-26T05:02:15.853Z,36.77
2018-11-26T05:04:44.080Z,29.60
2018-11-26T05:07:12.305Z,35.50
2018-11-26T05:09:40.550Z,32.83
2018-11-26T05:12:08.874Z,31.77
2018-11-26T05:14:37.107Z,39.83
2018-11-26T05:17:05.632Z,39.10
2018-11-26T05:19:33.908Z,38.50
2018-11-26T05:22:02.151Z,33.37
2018-11-26T05:24:30.413Z,35.33
2018-11-26T05:26:58.642Z,34.90
2018-11-26T05:29:26.914Z,38.87
2018-11-26T05:31:55.159Z,41.40
2018-11-26T05:34:23.391Z,27.93
2018-11-26T05:36:51.757Z,30.30
2018-11-26T05:39:20.008Z,31.70
2018-11-26T05:41:48.238Z,29.97
2018-11-26T05:44:16.933Z,33.63
2018-11-26T05:46:45.158Z,51.00
2018-11-26T05:49:13.417Z,35.70
2018-11-26T05:51:41.662Z,32.53
2018-11-26T05:54:09.943Z,36.80
2018-11-26T05:56:38.161Z,45.90
2018-11-26T05:59:06.441Z,35.90
2018-11-26T06:01:34.667Z,47.20
2018-11-26T06:04:02.943Z,34.13
2018-11-26T06:06:31.168Z,43.93
2018-11-26T06:08:59.412Z,42.67
2018-11-26T06:11:27.631Z,36.57
2018-11-26T06:13:55.864Z,44.80
2018-11-26T06:16:24.094Z,45.43
2018-11-26T06:18:52.336Z,40.57
2018-11-26T06:21:20.576Z,43.33
2018-11-26T06:23:48.869Z,40.17
2018-11-26T06:26:36.478Z,38.17
2018-11-26T06:29:04.729Z,52.13
2018-11-26T06:31:32.961Z,43.63
2018-11-26T06:34:01.237Z,40.13
2018-11-26T06:36:29.487Z,47.13
2018-11-26T06:38:57.712Z,38.10
2018-11-26T06:41:25.986Z,52.27
2018-11-26T06:43:54.232Z,36.50
2018-11-26T06:46:22.469Z,42.70
2018-11-26T06:48:50.716Z,43.60
2018-11-26T06:51:18.976Z,41.03
2018-11-26T06:53:47.270Z,41.40
2018-11-26T06:56:15.499Z,41.90
2018-11-26T06:58:43.744Z,40.40
2018-11-26T07:01:12.101Z,50.23
2018-11-26T07:03:40.335Z,44.67
2018-11-26T07:06:08.601Z,36.73
2018-11-26T07:08:36.833Z,60.17
2018-11-26T07:11:05.333Z,52.73
2018-11-26T07:13:33.586Z,45.60
2018-11-26T07:16:01.857Z,50.93
2018-11-26T07:18:30.070Z,46.77
2018-11-26T07:20:58.339Z,49.00
2018-11-26T07:23:26.576Z,52.30
2018-11-26T07:25:54.824Z,39.93
2018-11-26T07:28:23.071Z,48.57
2018-11-26T07:30:51.348Z,53.93
2018-11-26T07:33:19.780Z,41.50
2018-11-26T07:35:48.028Z,43.83
2018-11-26T07:38:16.282Z,46.87
2018-11-26T07:40:44.532Z,48.63
2018-11-26T07:43:13.965Z,37.47
2018-11-26T07:45:42.228Z,39.83
2018-11-26T07:48:11.530Z,43.27
2018-11-26T07:50:39.888Z,47.23
2018-11-26T07:53:09.422Z,44.53
2018-11-26T07:55:38.359Z,41.67
2018-11-26T07:58:06.665Z,40.83
2018-11-26T08:00:34.913Z,44.50
2018-11-26T08:03:03.187Z,55.13
2018-11-26T08:05:31.424Z,44.53
2018-11-26T08:07:59.686Z,41.23
2018-11-26T08:10:27.897Z,41.33
2018-11-26T08:12:56.229Z,41.17
2018-11-26T08:15:25.475Z,43.73
2018-11-26T08:17:53.778Z,42.30
2018-11-26T08:20:22.033Z,36.87
2018-11-26T08:22:50.289Z,44.50
2018-11-26T08:25:20.043Z,46.30
2018-11-26T08:27:48.979Z,37.43
2018-11-26T08:30:36.678Z,47.83
2018-11-26T08:33:05.295Z,41.53
2018-11-26T08:35:33.537Z,47.63
2018-11-26T08:38:20.873Z,44.20
2018-11-26T08:40:49.717Z,49.80
2018-11-26T08:43:37.088Z,42.43
2018-11-26T08:46:24.442Z,40.70
2018-11-26T08:49:11.819Z,39.67
2018-11-26T08:51:40.451Z,49.63
2018-11-26T08:54:08.703Z,35.10
2018-11-26T08:56:36.928Z,56.13
2018-11-26T08:59:05.547Z,40.27
2018-11-26T09:01:42.235Z,36.17
2018-11-26T09:04:10.513Z,37.70
2018-11-26T09:06:38.996Z,35.07
2018-11-26T09:09:26.773Z,31.00
2018-11-26T09:11:54.926Z,36.23
2018-11-26T09:14:23.202Z,35.03
2018-11-26T09:16:51.424Z,36.43
2018-11-26T09:19:19.678Z,33.30
2018-11-26T09:21:48.064Z,34.93
2018-11-26T09:24:16.204Z,31.00
2018-11-26T09:26:44.426Z,34.87
2018-11-26T09:29:13.251Z,43.20
2018-11-26T09:31:40.931Z,34.10
2018-11-26T09:34:09.168Z,28.50
2018-11-26T09:36:37.410Z,28.67
2018-11-26T09:39:10.115Z,29.33
2018-11-26T09:41:38.855Z,35.50
2018-11-26T09:44:07.466Z,27.97
2018-11-26T09:46:36.331Z,29.13
2018-11-26T09:49:04.593Z,31.77
2018-11-26T09:51:32.871Z,25.93
2018-11-26T09:54:01.098Z,29.20
2018-11-26T09:56:29.364Z,26.57
2018-11-26T09:58:57.649Z,29.50
2018-11-26T10:01:25.884Z,30.53
2018-11-26T10:03:54.135Z,36.97
2018-11-26T10:06:22.400Z,27.67
2018-11-26T10:08:50.612Z,28.53
2018-11-26T10:11:18.883Z,23.30
2018-11-26T10:13:47.137Z,26.87
2018-11-26T10:16:15.411Z,29.10
2018-11-26T10:18:43.652Z,34.60
2018-11-26T10:21:11.944Z,23.87
2018-11-26T10:23:40.194Z,32.03
2018-11-26T10:26:08.474Z,24.33
2018-11-26T10:28:36.722Z,28.37
2018-11-26T10:31:05.007Z,31.13
2018-11-26T10:33:33.266Z,24.50
2018-11-26T10:36:01.484Z,24.33
2018-11-26T10:38:29.723Z,17.20
2018-11-26T10:40:57.952Z,24.03
2018-11-26T10:43:26.195Z,22.90
2018-11-26T10:45:54.472Z,23.17
2018-11-26T10:48:22.719Z,18.37
2018-11-26T10:50:50.970Z,21.10
2018-11-26T10:53:19.199Z,24.40
2018-11-26T10:55:47.460Z,26.20
2018-11-26T10:58:15.707Z,19.10
2018-11-26T11:01:03.089Z,20.60
2018-11-26T11:03:31.335Z,23.17
2018-11-26T11:05:59.575Z,28.80
2018-11-26T11:08:47.238Z,23.23
2018-11-26T11:11:16.474Z,26.47
2018-11-26T11:13:43.821Z,24.77
2018-11-26T11:16:12.119Z,26.73
2018-11-26T11:18:40.318Z,23.43
2018-11-26T11:21:08.584Z,19.17
2018-11-26T11:23:36.817Z,27.37
2018-11-26T11:26:05.524Z,22.10
2018-11-26T11:28:33.864Z,22.97
2018-11-26T11:31:02.095Z,20.70
2018-11-26T11:33:30.353Z,20.70
2018-11-26T11:35:58.609Z,23.00
2018-11-26T11:38:26.862Z,20.77
2018-11-26T11:40:55.204Z,20.23
2018-11-26T11:43:23.491Z,19.93
2018-11-26T11:45:51.760Z,19.83
2018-11-26T11:48:20.052Z,24.73
2018-11-26T11:50:48.270Z,20.00
2018-11-26T11:53:16.633Z,20.77
2018-11-26T11:55:44.870Z,17.83
2018-11-26T11:58:13.117Z,19.70
2018-11-26T12:00:42.662Z,19.50
2018-11-26T12:03:30.339Z,17.80
2018-11-26T12:05:58.611Z,19.20
2018-11-26T12:08:26.881Z,18.27
2018-11-26T12:10:55.125Z,19.87
2018-11-26T12:13:23.370Z,19.23
2018-11-26T12:15:52.665Z,18.70
2018-11-26T12:18:21.012Z,25.13
2018-11-26T12:20:49.238Z,17.43
2018-11-26T12:23:17.574Z,21.17
2018-11-26T12:25:45.803Z,18.00
2018-11-26T12:28:14.047Z,16.93
2018-11-26T12:31:02.476Z,30.97
2018-11-26T12:33:30.751Z,23.27
2018-11-26T12:35:58.979Z,20.83
2018-11-26T12:38:27.222Z,21.90
2018-11-26T12:40:55.469Z,18.77
2018-11-26T12:43:23.742Z,21.07
2018-11-26T12:45:51.992Z,24.03
2018-11-26T12:48:20.255Z,21.33
2018-11-26T12:50:48.486Z,28.27
2018-11-26T12:53:16.790Z,25.13
2018-11-26T12:55:45.039Z,25.17
2018-11-26T12:58:13.372Z,24.87
2018-11-26T13:00:41.720Z,32.03
2018-11-26T13:03:29.339Z,36.20
2018-11-26T13:05:57.648Z,23.00
2018-11-26T13:08:25.828Z,26.23
2018-11-26T13:10:54.083Z,23.33
2018-11-26T13:13:22.309Z,30.80
2018-11-26T13:15:50.560Z,30.10
2018-11-26T13:18:18.780Z,33.67
2018-11-26T13:20:47.056Z,20.37
2018-11-26T13:23:15.333Z,33.73
2018-11-26T13:25:43.594Z,25.97
2018-11-26T13:28:11.844Z,26.67
2018-11-26T13:30:41.818Z,25.57
2018-11-26T13:33:14.566Z,26.27
2018-11-26T13:35:42.985Z,22.43
2018-11-26T13:38:11.211Z,36.90
2018-11-26T13:40:39.471Z,25.07
2018-11-26T13:43:09.110Z,28.07
2018-11-26T13:45:41.710Z,31.23
2018-11-26T13:48:11.085Z,23.03
2018-11-26T13:50:41.302Z,25.57
2018-11-26T13:53:09.532Z,28.27
2018-11-26T13:55:37.800Z,31.03
2018-11-26T13:58:06.031Z,31.53
2018-11-26T14:00:34.319Z,26.63
2018-11-26T14:03:02.533Z,27.70
2018-11-26T14:05:31.021Z,27.90
2018-11-26T14:07:59.260Z,25.50
2018-11-26T14:10:28.135Z,25.30
2018-11-26T14:13:16.140Z,26.10
2018-11-26T14:15:44.415Z,25.60
2018-11-26T14:18:12.633Z,30.57
2018-11-26T14:20:40.933Z,23.87
2018-11-26T14:23:09.162Z,26.40
2018-11-26T14:25:37.420Z,27.70
2018-11-26T14:28:06.284Z,29.73
2018-11-26T14:30:34.189Z,24.60
2018-11-26T14:33:02.418Z,24.00
2018-11-26T14:35:30.662Z,28.20
2018-11-26T14:38:18.365Z,24.73
2018-11-26T14:40:48.448Z,24.77
2018-11-26T14:43:16.724Z,28.53
2018-11-26T14:45:44.973Z,26.53
2018-11-26T14:48:13.270Z,31.43
2018-11-26T14:50:41.500Z,29.37
2018-11-26T14:53:11.778Z,33.23
2018-11-26T14:55:40.013Z,22.87
2018-11-26T14:58:08.264Z,27.87
2018-11-26T15:00:36.523Z,25.27
2018-11-26T15:03:05.084Z,24.20
2018-11-26T15:05:33.314Z,25.57
2018-11-26T15:08:01.581Z,25.43
2018-11-26T15:10:29.826Z,26.30
2018-11-26T15:12:58.067Z,27.53
2018-11-26T15:15:27.261Z,25.37
2018-11-26T15:17:55.519Z,31.13
2018-11-26T15:20:25.360Z,25.67
2018-11-26T15:22:54.629Z,21.57
2018-11-26T15:25:26.917Z,24.60
2018-11-26T15:28:14.645Z,19.93
2018-11-26T15:30:42.929Z,27.23
2018-11-26T15:33:11.180Z,25.67
2018-11-26T15:35:39.412Z,27.40
2018-11-26T15:38:07.935Z,32.53
2018-11-26T15:40:36.212Z,25.60
2018-11-26T15:43:04.564Z,26.00
2018-11-26T15:45:32.955Z,23.67
2018-11-26T15:48:02.744Z,27.53
2018-11-26T15:50:31.011Z,30.37
2018-11-26T15:52:59.262Z,23.53
2018-11-26T15:55:27.511Z,22.80
2018-11-26T15:57:55.788Z,24.43
2018-11-26T16:00:25.494Z,24.57
2018-11-26T16:02:53.924Z,23.47
2018-11-26T16:05:41.638Z,23.03
2018-11-26T16:08:14.247Z,23.13
2018-11-26T16:10:42.484Z,19.13
2018-11-26T16:13:12.987Z,20.33
2018-11-26T16:15:42.471Z,21.93
2018-11-26T16:18:29.971Z,18.93
2018-11-26T16:20:58.289Z,22.63
2018-11-26T16:23:26.538Z,20.50
2018-11-26T16:25:54.787Z,18.47
2018-11-26T16:28:23.988Z,18.43
2018-11-26T16:30:52.671Z,20.53
2018-11-26T16:33:20.979Z,22.53
2018-11-26T16:35:49.169Z,18.07
2018-11-26T16:38:17.488Z,22.97
2018-11-26T16:40:45.790Z,23.90
2018-11-26T16:43:14.021Z,19.77
2018-11-26T16:45:42.303Z,16.27
2018-11-26T16:48:10.566Z,20.53
2018-11-26T16:50:38.851Z,25.10
2018-11-26T16:53:07.805Z,22.83
2018-11-26T16:55:36.179Z,23.20
2018-11-26T16:58:04.832Z,21.43
2018-11-26T17:00:33.018Z,25.23
2018-11-26T17:03:02.034Z,20.57
2018-11-26T17:05:49.734Z,19.27
2018-11-26T17:08:17.971Z,24.03
2018-11-26T17:10:46.223Z,27.17
2018-11-26T17:13:14.903Z,21.40
2018-11-26T17:15:43.285Z,24.17
2018-11-26T17:18:11.507Z,64.67
2018-11-26T17:20:39.815Z,17.23
2018-11-26T17:23:08.395Z,22.37
2018-11-26T17:25:36.644Z,19.80
2018-11-26T17:28:04.903Z,23.07
2018-11-26T17:30:33.183Z,21.40
2018-11-26T17:33:02.855Z,19.63
2018-11-26T17:35:31.651Z,17.20
2018-11-26T17:37:59.937Z,20.97
2018-11-26T17:40:28.202Z,19.20
2018-11-26T17:42:56.682Z,17.10
2018-11-26T17:45:25.416Z,20.97
2018-11-26T17:47:55.008Z,22.73
2018-11-26T17:50:46.361Z,16.97
2018-11-26T17:53:18.876Z,19.30
2018-11-26T17:56:07.112Z,17.63
2018-11-26T17:58:35.367Z,15.57
2018-11-26T18:01:42.457Z,19.37
2018-11-26T18:04:10.835Z,19.80
2018-11-26T18:06:39.080Z,17.57
2018-11-26T18:09:26.756Z,18.27
2018-11-26T18:11:55.048Z,17.50
2018-11-26T18:14:23.306Z,21.00
2018-11-26T18:16:51.582Z,16.53
2018-11-26T18:19:19.800Z,15.67
2018-11-26T18:21:48.080Z,25.53
2018-11-26T18:24:16.316Z,16.37
2018-11-26T18:26:44.580Z,21.53
2018-11-26T18:29:12.810Z,19.83
2018-11-26T18:31:41.327Z,19.50
2018-11-26T18:34:09.638Z,17.90
2018-11-26T18:36:37.912Z,19.17
2018-11-26T18:39:09.260Z,12.60
2018-11-26T18:41:37.488Z,19.83
2018-11-26T18:44:06.538Z,17.93
2018-11-26T18:46:34.916Z,17.97
2018-11-26T18:49:03.181Z,17.97
2018-11-26T18:51:31.411Z,18.60
2018-11-26T18:53:59.685Z,15.40
2018-11-26T18:56:27.921Z,13.80
2018-11-26T18:58:56.191Z,16.50
2018-11-26T19:01:24.429Z,17.23
2018-11-26T19:03:52.679Z,23.33
2018-11-26T19:06:20.970Z,19.77
2018-11-26T19:08:49.228Z,18.13
2018-11-26T19:11:18.425Z,16.03
2018-11-26T19:14:07.461Z,22.70
2018-11-26T19:16:37.887Z,23.67
2018-11-26T19:19:06.408Z,17.07
2018-11-26T19:21:34.648Z,19.00
2018-11-26T19:24:02.926Z,17.57
2018-11-26T19:26:31.145Z,17.83
2018-11-26T19:28:59.396Z,19.67
2018-11-26T19:31:27.655Z,15.87
2018-11-26T19:33:55.959Z,21.57
2018-11-26T19:36:24.203Z,16.10
2018-11-26T19:38:52.477Z,16.50
2018-11-26T19:41:20.700Z,20.80
2018-11-26T19:43:48.947Z,21.70
2018-11-26T19:46:17.177Z,19.97
2018-11-26T19:48:45.468Z,19.47
2018-11-26T19:51:13.721Z,21.13
2018-11-26T19:53:41.973Z,14.07
2018-11-26T19:56:10.280Z,17.37
2018-11-26T19:58:38.525Z,18.43
2018-11-26T20:01:06.797Z,16.67
2018-11-26T20:03:37.510Z,17.40
2018-11-26T20:06:25.402Z,17.50
2018-11-26T20:09:13.087Z,17.60
2018-11-26T20:11:41.371Z,16.77
2018-11-26T20:14:09.618Z,25.90
2018-11-26T20:16:40.352Z,19.87
2018-11-26T20:19:08.617Z,19.37
2018-11-26T20:21:36.874Z,21.10
2018-11-26T20:24:05.212Z,18.90
2018-11-26T20:26:33.426Z,33.98
2018-11-26T20:29:01.674Z,21.73
2018-11-26T20:31:29.972Z,24.57
2018-11-26T20:33:58.192Z,20.70
2018-11-26T20:36:26.466Z,24.60
2018-11-26T20:38:54.724Z,25.37
2018-11-26T20:41:22.984Z,25.60
2018-11-26T20:43:51.293Z,24.10
2018-11-26T20:46:19.512Z,22.33
2018-11-26T20:48:47.762Z,24.37
2018-11-26T20:51:16.083Z,25.60
2018-11-26T20:53:44.268Z,32.20
2018-11-26T20:56:16.981Z,27.00
2018-11-26T20:58:46.141Z,25.73
2018-11-26T21:01:14.544Z,28.83
2018-11-26T21:03:42.803Z,30.87
2018-11-26T21:06:11.805Z,24.37
2018-11-26T21:08:39.288Z,23.87
2018-11-26T21:11:07.582Z,26.33
2018-11-26T21:13:35.804Z,31.20
2018-11-26T21:16:04.107Z,26.67
2018-11-26T21:18:32.357Z,22.80
2018-11-26T21:21:00.627Z,26.03
2018-11-26T21:23:48.341Z,20.77
2018-11-26T21:26:16.618Z,25.37
2018-11-26T21:28:44.865Z,25.37
2018-11-26T21:31:13.156Z,21.77
2018-11-26T21:33:41.409Z,28.67
2018-11-26T21:36:09.645Z,22.73
2018-11-26T21:38:39.684Z,30.27
2018-11-26T21:41:08.049Z,29.90
2018-11-26T21:43:36.302Z,31.73
2018-11-26T21:46:04.867Z,27.57
2018-11-26T21:48:33.129Z,29.73
2018-11-26T21:51:01.409Z,27.70
2018-11-26T21:53:29.669Z,24.37
2018-11-26T21:55:57.908Z,24.20
2018-11-26T21:58:26.153Z,29.20
2018-11-26T22:00:56.049Z,26.83
2018-11-26T22:03:24.326Z,26.80
2018-11-26T22:05:52.599Z,20.90
2018-11-26T22:08:20.839Z,22.10
2018-11-26T22:10:49.144Z,29.40
2018-11-26T22:13:19.218Z,29.90
2018-11-26T22:15:47.510Z,25.40
2018-11-26T22:18:15.782Z,33.20
2018-11-26T22:20:44.031Z,26.37
2018-11-26T22:23:12.355Z,29.10
2018-11-26T22:25:40.608Z,27.27
2018-11-26T22:28:10.164Z,24.50
2018-11-26T22:30:39.109Z,28.17
2018-11-26T22:33:07.555Z,27.50
2018-11-26T22:35:35.830Z,23.80
2018-11-26T22:38:04.046Z,22.87
2018-11-26T22:40:32.320Z,27.07
2018-11-26T22:43:00.543Z,23.50
2018-11-26T22:45:48.637Z,25.57
2018-11-26T22:48:16.888Z,23.73
2018-11-26T22:50:45.704Z,24.53
2018-11-26T22:53:13.925Z,23.73
2018-11-26T22:55:42.173Z,33.43
2018-11-26T22:58:29.828Z,27.33
2018-11-26T23:00:58.111Z,23.47
2018-11-26T23:03:27.002Z,24.80
2018-11-26T23:05:55.251Z,21.03
2018-11-26T23:08:23.480Z,23.47
2018-11-26T23:10:51.733Z,21.50
2018-11-26T23:13:19.958Z,24.70
2018-11-26T23:15:48.220Z,27.53
2018-11-26T23:18:16.498Z,24.53
2018-11-26T23:20:44.772Z,17.40
2018-11-26T23:23:12.997Z,19.60
2018-11-26T23:25:41.240Z,22.93
2018-11-26T23:28:09.465Z,24.23
2018-11-26T23:30:37.708Z,26.13
2018-11-26T23:33:06.930Z,25.83
2018-11-26T23:35:35.210Z,24.90
2018-11-26T23:38:03.438Z,26.53
2018-11-26T23:40:31.686Z,23.53
2018-11-26T23:42:59.917Z,30.83
2018-11-26T23:45:29.088Z,24.73
2018-11-26T23:47:57.312Z,25.53
2018-11-26T23:50:25.563Z,25.73
2018-11-26T23:52:53.785Z,21.80
2018-11-26T23:55:23.140Z,26.20
2018-11-26T23:57:51.368Z,27.03
